sensor_id;sensor_type;location;lat;lon;timestamp;P1;durP1;ratioP1;P2;durP2;ratioP2
8319;SDS011;4197;42.130;24.746;2023-07-13T00:01:09;18.83;;;11.73;;
8319;SDS011;4197;42.130;24.746;2023-07-13T00:03:37;13.88;;;10.73;;
8319;SDS011;4197;42.130;24.746;2023-07-13T00:06:07;13.13;;;10.50;;
8319;SDS011;4197;42.130;24.746;2023-07-13T00:08:37;18.58;;;10.48;;
8319;SDS011;4197;42.130;24.746;2023-07-13T00:11:05;15.48;;;10.63;;
8319;SDS011;4197;42.130;24.746;2023-07-13T00:13:35;15.73;;;11.40;;
8319;SDS011;4197;42.130;24.746;2023-07-13T00:16:05;16.33;;;10.90;;
8319;SDS011;4197;42.130;24.746;2023-07-13T00:18:34;14.00;;;10.25;;
8319;SDS011;4197;42.130;24.746;2023-07-13T00:21:04;14.18;;;10.45;;
8319;SDS011;4197;42.130;24.746;2023-07-13T00:23:32;11.63;;;10.43;;
8319;SDS011;4197;42.130;24.746;2023-07-13T00:26:02;13.70;;;10.38;;
8319;SDS011;4197;42.130;24.746;2023-07-13T00:28:32;16.10;;;10.80;;
8319;SDS011;4197;42.130;24.746;2023-07-13T00:31:02;19.70;;;11.63;;
8319;SDS011;4197;42.130;24.746;2023-07-13T00:33:34;11.73;;;10.15;;
8319;SDS011;4197;42.130;24.746;2023-07-13T00:36:04;13.38;;;10.35;;
8319;SDS011;4197;42.130;24.746;2023-07-13T00:38:32;11.35;;;9.82;;
8319;SDS011;4197;42.130;24.746;2023-07-13T00:41:00;15.77;;;10.38;;
8319;SDS011;4197;42.130;24.746;2023-07-13T00:43:30;12.13;;;9.82;;
8319;SDS011;4197;42.130;24.746;2023-07-13T00:48:54;11.82;;;9.15;;
8319;SDS011;4197;42.130;24.746;2023-07-13T00:51:28;12.85;;;9.27;;
8319;SDS011;4197;42.130;24.746;2023-07-13T00:54:03;11.02;;;9.57;;
8319;SDS011;4197;42.130;24.746;2023-07-13T00:56:34;10.27;;;9.18;;
8319;SDS011;4197;42.130;24.746;2023-07-13T00:59:05;12.13;;;8.90;;
8319;SDS011;4197;42.130;24.746;2023-07-13T01:01:37;15.05;;;9.85;;
8319;SDS011;4197;42.130;24.746;2023-07-13T01:04:06;14.32;;;9.40;;
8319;SDS011;4197;42.130;24.746;2023-07-13T01:06:35;12.80;;;9.48;;
8319;SDS011;4197;42.130;24.746;2023-07-13T01:09:04;13.15;;;9.38;;
8319;SDS011;4197;42.130;24.746;2023-07-13T01:11:36;9.65;;;8.57;;
8319;SDS011;4197;42.130;24.746;2023-07-13T01:14:05;11.02;;;8.48;;
8319;SDS011;4197;42.130;24.746;2023-07-13T01:16:34;10.25;;;8.63;;
8319;SDS011;4197;42.130;24.746;2023-07-13T01:19:07;13.68;;;9.52;;
8319;SDS011;4197;42.130;24.746;2023-07-13T01:21:49;12.73;;;9.05;;
8319;SDS011;4197;42.130;24.746;2023-07-13T01:24:18;12.57;;;8.75;;
8319;SDS011;4197;42.130;24.746;2023-07-13T01:26:46;11.00;;;9.50;;
8319;SDS011;4197;42.130;24.746;2023-07-13T01:29:14;12.10;;;8.95;;
8319;SDS011;4197;42.130;24.746;2023-07-13T01:31:42;12.02;;;8.82;;
8319;SDS011;4197;42.130;24.746;2023-07-13T01:34:11;10.55;;;9.43;;
8319;SDS011;4197;42.130;24.746;2023-07-13T01:36:39;10.23;;;8.98;;
8319;SDS011;4197;42.130;24.746;2023-07-13T01:39:09;10.75;;;9.57;;
8319;SDS011;4197;42.130;24.746;2023-07-13T01:41:37;10.60;;;9.45;;
8319;SDS011;4197;42.130;24.746;2023-07-13T01:44:06;10.32;;;9.02;;
8319;SDS011;4197;42.130;24.746;2023-07-13T01:46:34;14.10;;;9.20;;
8319;SDS011;4197;42.130;24.746;2023-07-13T01:49:03;14.63;;;10.10;;
8319;SDS011;4197;42.130;24.746;2023-07-13T01:51:31;11.73;;;8.95;;
8319;SDS011;4197;42.130;24.746;2023-07-13T01:53:59;11.57;;;9.18;;
8319;SDS011;4197;42.130;24.746;2023-07-13T01:56:29;11.00;;;8.65;;
8319;SDS011;4197;42.130;24.746;2023-07-13T01:58:57;10.35;;;8.95;;
8319;SDS011;4197;42.130;24.746;2023-07-13T02:01:25;12.15;;;9.15;;
8319;SDS011;4197;42.130;24.746;2023-07-13T02:03:54;10.65;;;8.65;;
8319;SDS011;4197;42.130;24.746;2023-07-13T02:06:22;16.60;;;9.52;;
8319;SDS011;4197;42.130;24.746;2023-07-13T02:08:58;11.25;;;9.13;;
8319;SDS011;4197;42.130;24.746;2023-07-13T02:11:26;9.65;;;8.50;;
8319;SDS011;4197;42.130;24.746;2023-07-13T02:13:59;14.07;;;8.40;;
8319;SDS011;4197;42.130;24.746;2023-07-13T02:16:28;10.60;;;8.60;;
8319;SDS011;4197;42.130;24.746;2023-07-13T02:18:57;11.93;;;8.77;;
8319;SDS011;4197;42.130;24.746;2023-07-13T02:21:27;10.13;;;8.32;;
8319;SDS011;4197;42.130;24.746;2023-07-13T02:23:55;13.95;;;8.77;;
8319;SDS011;4197;42.130;24.746;2023-07-13T02:26:24;10.70;;;8.52;;
8319;SDS011;4197;42.130;24.746;2023-07-13T02:28:53;10.52;;;8.50;;
8319;SDS011;4197;42.130;24.746;2023-07-13T02:31:22;10.85;;;8.95;;
8319;SDS011;4197;42.130;24.746;2023-07-13T02:33:50;10.48;;;9.27;;
8319;SDS011;4197;42.130;24.746;2023-07-13T02:36:18;14.75;;;9.07;;
8319;SDS011;4197;42.130;24.746;2023-07-13T02:38:49;13.20;;;8.20;;
8319;SDS011;4197;42.130;24.746;2023-07-13T02:41:17;15.15;;;9.23;;
8319;SDS011;4197;42.130;24.746;2023-07-13T02:43:45;10.77;;;9.10;;
8319;SDS011;4197;42.130;24.746;2023-07-13T02:46:15;10.00;;;8.55;;
8319;SDS011;4197;42.130;24.746;2023-07-13T02:48:43;13.60;;;8.80;;
8319;SDS011;4197;42.130;24.746;2023-07-13T02:51:11;15.25;;;9.43;;
8319;SDS011;4197;42.130;24.746;2023-07-13T02:53:39;13.55;;;9.52;;
8319;SDS011;4197;42.130;24.746;2023-07-13T02:56:07;11.70;;;9.48;;
8319;SDS011;4197;42.130;24.746;2023-07-13T02:58:36;12.18;;;9.20;;
8319;SDS011;4197;42.130;24.746;2023-07-13T03:01:08;12.57;;;9.10;;
8319;SDS011;4197;42.130;24.746;2023-07-13T03:03:38;13.90;;;9.45;;
8319;SDS011;4197;42.130;24.746;2023-07-13T03:06:06;13.32;;;8.93;;
8319;SDS011;4197;42.130;24.746;2023-07-13T03:08:36;12.13;;;8.80;;
8319;SDS011;4197;42.130;24.746;2023-07-13T03:11:05;13.35;;;8.98;;
8319;SDS011;4197;42.130;24.746;2023-07-13T03:13:35;13.55;;;9.05;;
8319;SDS011;4197;42.130;24.746;2023-07-13T03:16:04;15.07;;;9.48;;
8319;SDS011;4197;42.130;24.746;2023-07-13T03:18:33;12.80;;;9.60;;
8319;SDS011;4197;42.130;24.746;2023-07-13T03:21:03;17.40;;;9.15;;
8319;SDS011;4197;42.130;24.746;2023-07-13T03:23:32;14.15;;;8.23;;
8319;SDS011;4197;42.130;24.746;2023-07-13T03:26:01;16.95;;;8.68;;
8319;SDS011;4197;42.130;24.746;2023-07-13T03:28:30;17.17;;;8.80;;
8319;SDS011;4197;42.130;24.746;2023-07-13T03:31:00;17.02;;;9.43;;
8319;SDS011;4197;42.130;24.746;2023-07-13T03:33:29;17.20;;;9.85;;
8319;SDS011;4197;42.130;24.746;2023-07-13T03:35:58;27.25;;;17.98;;
8319;SDS011;4197;42.130;24.746;2023-07-13T03:38:27;15.02;;;9.65;;
8319;SDS011;4197;42.130;24.746;2023-07-13T03:40:56;15.52;;;9.15;;
8319;SDS011;4197;42.130;24.746;2023-07-13T03:43:24;22.35;;;9.95;;
8319;SDS011;4197;42.130;24.746;2023-07-13T03:45:52;19.35;;;10.05;;
8319;SDS011;4197;42.130;24.746;2023-07-13T03:48:21;18.63;;;10.80;;
8319;SDS011;4197;42.130;24.746;2023-07-13T03:50:49;19.23;;;11.05;;
8319;SDS011;4197;42.130;24.746;2023-07-13T03:53:17;26.58;;;12.77;;
8319;SDS011;4197;42.130;24.746;2023-07-13T03:55:47;14.18;;;9.68;;
8319;SDS011;4197;42.130;24.746;2023-07-13T03:58:26;21.05;;;9.93;;
8319;SDS011;4197;42.130;24.746;2023-07-13T04:00:57;14.60;;;9.30;;
8319;SDS011;4197;42.130;24.746;2023-07-13T04:03:26;21.40;;;9.80;;
8319;SDS011;4197;42.130;24.746;2023-07-13T04:05:55;16.65;;;9.05;;
8319;SDS011;4197;42.130;24.746;2023-07-13T04:08:26;14.75;;;9.00;;
8319;SDS011;4197;42.130;24.746;2023-07-13T04:10:57;15.23;;;8.90;;
8319;SDS011;4197;42.130;24.746;2023-07-13T04:13:26;17.40;;;8.82;;
8319;SDS011;4197;42.130;24.746;2023-07-13T04:15:54;15.32;;;8.98;;
8319;SDS011;4197;42.130;24.746;2023-07-13T04:18:23;20.20;;;9.77;;
8319;SDS011;4197;42.130;24.746;2023-07-13T04:20:52;15.50;;;8.98;;
8319;SDS011;4197;42.130;24.746;2023-07-13T04:23:20;11.35;;;8.43;;
8319;SDS011;4197;42.130;24.746;2023-07-13T04:25:48;12.25;;;8.40;;
8319;SDS011;4197;42.130;24.746;2023-07-13T04:28:22;15.65;;;9.25;;
8319;SDS011;4197;42.130;24.746;2023-07-13T04:30:51;14.13;;;8.45;;
8319;SDS011;4197;42.130;24.746;2023-07-13T04:33:19;13.65;;;9.00;;
8319;SDS011;4197;42.130;24.746;2023-07-13T04:35:49;12.95;;;9.07;;
8319;SDS011;4197;42.130;24.746;2023-07-13T04:38:21;16.58;;;9.88;;
8319;SDS011;4197;42.130;24.746;2023-07-13T04:40:51;15.30;;;9.43;;
8319;SDS011;4197;42.130;24.746;2023-07-13T04:43:19;10.77;;;8.57;;
8319;SDS011;4197;42.130;24.746;2023-07-13T04:45:49;16.23;;;8.95;;
8319;SDS011;4197;42.130;24.746;2023-07-13T04:48:18;15.30;;;9.05;;
8319;SDS011;4197;42.130;24.746;2023-07-13T04:50:47;16.58;;;9.15;;
8319;SDS011;4197;42.130;24.746;2023-07-13T04:53:21;11.77;;;9.43;;
8319;SDS011;4197;42.130;24.746;2023-07-13T04:55:50;19.98;;;9.70;;
8319;SDS011;4197;42.130;24.746;2023-07-13T04:58:19;16.33;;;9.18;;
8319;SDS011;4197;42.130;24.746;2023-07-13T05:00:50;12.35;;;9.15;;
8319;SDS011;4197;42.130;24.746;2023-07-13T05:03:19;12.15;;;8.82;;
8319;SDS011;4197;42.130;24.746;2023-07-13T05:05:55;12.48;;;9.63;;
8319;SDS011;4197;42.130;24.746;2023-07-13T05:08:24;13.82;;;9.02;;
8319;SDS011;4197;42.130;24.746;2023-07-13T05:10:52;14.60;;;9.02;;
8319;SDS011;4197;42.130;24.746;2023-07-13T05:13:21;14.80;;;8.93;;
8319;SDS011;4197;42.130;24.746;2023-07-13T05:15:58;12.77;;;9.43;;
8319;SDS011;4197;42.130;24.746;2023-07-13T05:18:28;14.88;;;10.80;;
8319;SDS011;4197;42.130;24.746;2023-07-13T05:20:58;19.98;;;13.13;;
8319;SDS011;4197;42.130;24.746;2023-07-13T05:23:28;15.07;;;10.18;;
8319;SDS011;4197;42.130;24.746;2023-07-13T05:25:56;12.63;;;9.90;;
8319;SDS011;4197;42.130;24.746;2023-07-13T05:28:25;13.65;;;9.43;;
8319;SDS011;4197;42.130;24.746;2023-07-13T05:30:54;12.93;;;9.63;;
8319;SDS011;4197;42.130;24.746;2023-07-13T05:33:24;14.98;;;9.57;;
8319;SDS011;4197;42.130;24.746;2023-07-13T05:35:53;13.68;;;10.15;;
8319;SDS011;4197;42.130;24.746;2023-07-13T05:38:22;15.10;;;10.25;;
8319;SDS011;4197;42.130;24.746;2023-07-13T05:40:50;14.25;;;9.35;;
8319;SDS011;4197;42.130;24.746;2023-07-13T05:43:22;14.40;;;9.93;;
8319;SDS011;4197;42.130;24.746;2023-07-13T05:45:53;14.38;;;10.20;;
8319;SDS011;4197;42.130;24.746;2023-07-13T05:48:22;15.90;;;10.20;;
8319;SDS011;4197;42.130;24.746;2023-07-13T05:50:52;13.20;;;10.00;;
8319;SDS011;4197;42.130;24.746;2023-07-13T05:53:20;12.95;;;9.48;;
8319;SDS011;4197;42.130;24.746;2023-07-13T05:55:48;17.65;;;10.93;;
8319;SDS011;4197;42.130;24.746;2023-07-13T05:58:19;18.15;;;10.70;;
8319;SDS011;4197;42.130;24.746;2023-07-13T06:00:48;29.98;;;10.55;;
8319;SDS011;4197;42.130;24.746;2023-07-13T06:03:27;17.67;;;10.18;;
8319;SDS011;4197;42.130;24.746;2023-07-13T06:05:55;16.83;;;9.77;;
8319;SDS011;4197;42.130;24.746;2023-07-13T06:08:24;13.02;;;10.05;;
8319;SDS011;4197;42.130;24.746;2023-07-13T06:10:52;18.00;;;9.70;;
8319;SDS011;4197;42.130;24.746;2023-07-13T06:13:20;30.70;;;10.60;;
8319;SDS011;4197;42.130;24.746;2023-07-13T06:15:48;16.30;;;9.68;;
8319;SDS011;4197;42.130;24.746;2023-07-13T06:18:17;15.45;;;10.38;;
8319;SDS011;4197;42.130;24.746;2023-07-13T06:20:47;14.25;;;9.73;;
8319;SDS011;4197;42.130;24.746;2023-07-13T06:23:15;12.27;;;10.00;;
8319;SDS011;4197;42.130;24.746;2023-07-13T06:25:43;11.07;;;9.80;;
8319;SDS011;4197;42.130;24.746;2023-07-13T06:28:12;13.32;;;8.80;;
8319;SDS011;4197;42.130;24.746;2023-07-13T06:30:40;11.68;;;10.18;;
8319;SDS011;4197;42.130;24.746;2023-07-13T06:33:08;12.70;;;9.50;;
8319;SDS011;4197;42.130;24.746;2023-07-13T06:35:36;16.08;;;9.93;;
8319;SDS011;4197;42.130;24.746;2023-07-13T06:38:06;15.48;;;9.40;;
8319;SDS011;4197;42.130;24.746;2023-07-13T06:40:35;15.02;;;10.55;;
8319;SDS011;4197;42.130;24.746;2023-07-13T06:43:03;16.95;;;11.45;;
8319;SDS011;4197;42.130;24.746;2023-07-13T06:45:35;12.60;;;10.35;;
8319;SDS011;4197;42.130;24.746;2023-07-13T06:48:08;21.73;;;12.63;;
8319;SDS011;4197;42.130;24.746;2023-07-13T06:50:36;16.35;;;9.90;;
8319;SDS011;4197;42.130;24.746;2023-07-13T06:53:04;30.80;;;15.10;;
8319;SDS011;4197;42.130;24.746;2023-07-13T06:55:34;23.02;;;12.35;;
8319;SDS011;4197;42.130;24.746;2023-07-13T06:58:02;20.42;;;10.27;;
8319;SDS011;4197;42.130;24.746;2023-07-13T07:00:31;16.25;;;9.65;;
8319;SDS011;4197;42.130;24.746;2023-07-13T07:02:59;10.63;;;9.52;;
8319;SDS011;4197;42.130;24.746;2023-07-13T07:05:28;14.30;;;9.73;;
8319;SDS011;4197;42.130;24.746;2023-07-13T07:07:56;12.35;;;9.57;;
8319;SDS011;4197;42.130;24.746;2023-07-13T07:10:26;16.85;;;9.35;;
8319;SDS011;4197;42.130;24.746;2023-07-13T07:12:57;14.95;;;9.80;;
8319;SDS011;4197;42.130;24.746;2023-07-13T07:15:26;14.10;;;10.32;;
8319;SDS011;4197;42.130;24.746;2023-07-13T07:17:54;14.77;;;10.00;;
8319;SDS011;4197;42.130;24.746;2023-07-13T07:20:23;15.55;;;9.75;;
8319;SDS011;4197;42.130;24.746;2023-07-13T07:22:51;12.57;;;10.00;;
8319;SDS011;4197;42.130;24.746;2023-07-13T07:25:20;13.48;;;10.40;;
8319;SDS011;4197;42.130;24.746;2023-07-13T07:27:49;12.60;;;9.75;;
8319;SDS011;4197;42.130;24.746;2023-07-13T07:30:21;15.52;;;10.55;;
8319;SDS011;4197;42.130;24.746;2023-07-13T07:32:52;20.10;;;9.77;;
8319;SDS011;4197;42.130;24.746;2023-07-13T07:35:23;16.42;;;9.70;;
8319;SDS011;4197;42.130;24.746;2023-07-13T07:37:52;12.88;;;9.88;;
8319;SDS011;4197;42.130;24.746;2023-07-13T07:40:20;12.75;;;9.20;;
8319;SDS011;4197;42.130;24.746;2023-07-13T07:42:53;12.43;;;9.30;;
8319;SDS011;4197;42.130;24.746;2023-07-13T07:45:21;14.50;;;9.52;;
8319;SDS011;4197;42.130;24.746;2023-07-13T07:47:49;18.17;;;10.02;;
8319;SDS011;4197;42.130;24.746;2023-07-13T07:50:18;16.05;;;9.88;;
8319;SDS011;4197;42.130;24.746;2023-07-13T07:52:46;32.13;;;10.63;;
8319;SDS011;4197;42.130;24.746;2023-07-13T07:55:14;10.52;;;8.68;;
8319;SDS011;4197;42.130;24.746;2023-07-13T07:57:45;12.85;;;9.63;;
8319;SDS011;4197;42.130;24.746;2023-07-13T08:00:18;16.92;;;9.90;;
8319;SDS011;4197;42.130;24.746;2023-07-13T08:02:50;13.27;;;9.25;;
8319;SDS011;4197;42.130;24.746;2023-07-13T08:05:21;15.40;;;10.15;;
8319;SDS011;4197;42.130;24.746;2023-07-13T08:08:01;11.00;;;9.60;;
8319;SDS011;4197;42.130;24.746;2023-07-13T08:10:30;15.07;;;10.07;;
8319;SDS011;4197;42.130;24.746;2023-07-13T08:12:58;22.90;;;10.07;;
8319;SDS011;4197;42.130;24.746;2023-07-13T08:15:30;31.65;;;10.38;;
8319;SDS011;4197;42.130;24.746;2023-07-13T08:17:59;30.42;;;10.68;;
8319;SDS011;4197;42.130;24.746;2023-07-13T08:20:27;16.08;;;9.48;;
8319;SDS011;4197;42.130;24.746;2023-07-13T08:22:55;12.32;;;9.63;;
8319;SDS011;4197;42.130;24.746;2023-07-13T08:25:24;12.10;;;8.60;;
8319;SDS011;4197;42.130;24.746;2023-07-13T08:27:52;12.55;;;8.50;;
8319;SDS011;4197;42.130;24.746;2023-07-13T08:30:21;14.13;;;8.73;;
8319;SDS011;4197;42.130;24.746;2023-07-13T08:32:51;13.25;;;8.95;;
8319;SDS011;4197;42.130;24.746;2023-07-13T08:35:21;13.13;;;8.93;;
8319;SDS011;4197;42.130;24.746;2023-07-13T08:37:49;16.05;;;8.82;;
8319;SDS011;4197;42.130;24.746;2023-07-13T08:40:17;20.00;;;8.98;;
8319;SDS011;4197;42.130;24.746;2023-07-13T08:42:52;16.02;;;8.90;;
8319;SDS011;4197;42.130;24.746;2023-07-13T08:45:23;13.88;;;7.63;;
8319;SDS011;4197;42.130;24.746;2023-07-13T08:48:00;11.80;;;8.40;;
8319;SDS011;4197;42.130;24.746;2023-07-13T08:50:32;165.35;;;19.13;;
8319;SDS011;4197;42.130;24.746;2023-07-13T08:53:28;15.75;;;9.07;;
8319;SDS011;4197;42.130;24.746;2023-07-13T08:56:03;18.13;;;9.20;;
8319;SDS011;4197;42.130;24.746;2023-07-13T08:58:38;17.95;;;8.88;;
8319;SDS011;4197;42.130;24.746;2023-07-13T09:01:10;12.25;;;8.30;;
8319;SDS011;4197;42.130;24.746;2023-07-13T09:03:49;12.55;;;8.65;;
8319;SDS011;4197;42.130;24.746;2023-07-13T09:06:27;11.93;;;7.82;;
8319;SDS011;4197;42.130;24.746;2023-07-13T09:09:01;16.58;;;8.80;;
8319;SDS011;4197;42.130;24.746;2023-07-13T09:11:42;15.40;;;8.88;;
8319;SDS011;4197;42.130;24.746;2023-07-13T09:17:07;22.40;;;7.90;;
8319;SDS011;4197;42.130;24.746;2023-07-13T09:19:43;10.50;;;7.63;;
8319;SDS011;4197;42.130;24.746;2023-07-13T09:22:17;11.50;;;8.20;;
8319;SDS011;4197;42.130;24.746;2023-07-13T09:24:50;10.55;;;8.50;;
8319;SDS011;4197;42.130;24.746;2023-07-13T09:27:26;29.00;;;9.90;;
8319;SDS011;4197;42.130;24.746;2023-07-13T09:30:02;14.48;;;8.50;;
8319;SDS011;4197;42.130;24.746;2023-07-13T09:32:50;12.23;;;7.70;;
8319;SDS011;4197;42.130;24.746;2023-07-13T09:35:24;14.13;;;7.85;;
8319;SDS011;4197;42.130;24.746;2023-07-13T09:37:59;15.52;;;7.95;;
8319;SDS011;4197;42.130;24.746;2023-07-13T09:40:36;36.80;;;9.85;;
8319;SDS011;4197;42.130;24.746;2023-07-13T09:43:10;15.20;;;7.45;;
8319;SDS011;4197;42.130;24.746;2023-07-13T09:45:42;13.65;;;7.32;;
8319;SDS011;4197;42.130;24.746;2023-07-13T09:48:13;11.45;;;6.95;;
8319;SDS011;4197;42.130;24.746;2023-07-13T09:50:44;11.50;;;6.95;;
8319;SDS011;4197;42.130;24.746;2023-07-13T09:53:13;12.07;;;6.97;;
8319;SDS011;4197;42.130;24.746;2023-07-13T09:55:43;34.83;;;8.38;;
8319;SDS011;4197;42.130;24.746;2023-07-13T09:58:22;20.80;;;7.47;;
8319;SDS011;4197;42.130;24.746;2023-07-13T10:00:55;11.32;;;7.32;;
8319;SDS011;4197;42.130;24.746;2023-07-13T10:03:26;9.57;;;6.13;;
8319;SDS011;4197;42.130;24.746;2023-07-13T10:06:00;15.90;;;7.40;;
8319;SDS011;4197;42.130;24.746;2023-07-13T10:08:37;11.25;;;7.30;;
8319;SDS011;4197;42.130;24.746;2023-07-13T10:11:09;12.45;;;6.97;;
8319;SDS011;4197;42.130;24.746;2023-07-13T10:13:48;10.70;;;6.82;;
8319;SDS011;4197;42.130;24.746;2023-07-13T10:16:22;12.13;;;6.90;;
8319;SDS011;4197;42.130;24.746;2023-07-13T10:18:53;19.05;;;7.15;;
8319;SDS011;4197;42.130;24.746;2023-07-13T10:21:28;14.30;;;6.82;;
8319;SDS011;4197;42.130;24.746;2023-07-13T10:24:04;10.50;;;8.65;;
8319;SDS011;4197;42.130;24.746;2023-07-13T10:26:46;9.57;;;7.35;;
8319;SDS011;4197;42.130;24.746;2023-07-13T10:29:19;14.68;;;8.15;;
8319;SDS011;4197;42.130;24.746;2023-07-13T10:31:51;9.90;;;8.20;;
8319;SDS011;4197;42.130;24.746;2023-07-13T10:34:19;18.50;;;7.97;;
8319;SDS011;4197;42.130;24.746;2023-07-13T10:36:51;13.30;;;7.60;;
8319;SDS011;4197;42.130;24.746;2023-07-13T10:39:20;11.98;;;5.93;;
8319;SDS011;4197;42.130;24.746;2023-07-13T10:41:52;13.20;;;5.95;;
8319;SDS011;4197;42.130;24.746;2023-07-13T10:44:23;9.40;;;5.10;;
8319;SDS011;4197;42.130;24.746;2023-07-13T10:46:56;9.82;;;5.63;;
8319;SDS011;4197;42.130;24.746;2023-07-13T10:49:26;7.07;;;5.10;;
8319;SDS011;4197;42.130;24.746;2023-07-13T10:51:58;26.20;;;7.05;;
8319;SDS011;4197;42.130;24.746;2023-07-13T10:54:27;8.60;;;5.25;;
8319;SDS011;4197;42.130;24.746;2023-07-13T10:57:10;6.28;;;4.88;;
8319;SDS011;4197;42.130;24.746;2023-07-13T10:59:45;6.80;;;4.60;;
8319;SDS011;4197;42.130;24.746;2023-07-13T11:02:21;6.28;;;4.80;;
8319;SDS011;4197;42.130;24.746;2023-07-13T11:04:54;9.05;;;5.32;;
8319;SDS011;4197;42.130;24.746;2023-07-13T11:07:27;11.98;;;5.00;;
8319;SDS011;4197;42.130;24.746;2023-07-13T11:09:57;10.20;;;5.38;;
8319;SDS011;4197;42.130;24.746;2023-07-13T11:15:27;18.23;;;5.65;;
8319;SDS011;4197;42.130;24.746;2023-07-13T11:18:02;9.57;;;5.07;;
8319;SDS011;4197;42.130;24.746;2023-07-13T11:20:36;7.93;;;4.95;;
8319;SDS011;4197;42.130;24.746;2023-07-13T11:23:20;6.53;;;4.22;;
8319;SDS011;4197;42.130;24.746;2023-07-13T11:25:58;13.68;;;5.10;;
8319;SDS011;4197;42.130;24.746;2023-07-13T11:28:29;9.40;;;4.70;;
8319;SDS011;4197;42.130;24.746;2023-07-13T11:31:02;9.43;;;5.03;;
8319;SDS011;4197;42.130;24.746;2023-07-13T11:33:49;11.73;;;4.63;;
8319;SDS011;4197;42.130;24.746;2023-07-13T11:36:21;6.28;;;4.80;;
8319;SDS011;4197;42.130;24.746;2023-07-13T11:38:57;8.82;;;4.63;;
8319;SDS011;4197;42.130;24.746;2023-07-13T11:41:29;14.45;;;5.35;;
8319;SDS011;4197;42.130;24.746;2023-07-13T11:44:06;8.43;;;4.38;;
8319;SDS011;4197;42.130;24.746;2023-07-13T11:46:38;7.97;;;4.53;;
8319;SDS011;4197;42.130;24.746;2023-07-13T11:49:13;8.48;;;4.53;;
8319;SDS011;4197;42.130;24.746;2023-07-13T11:51:44;7.28;;;4.75;;
8319;SDS011;4197;42.130;24.746;2023-07-13T11:54:23;8.68;;;4.60;;
8319;SDS011;4197;42.130;24.746;2023-07-13T11:56:55;12.75;;;4.90;;
8319;SDS011;4197;42.130;24.746;2023-07-13T11:59:27;7.32;;;4.38;;
8319;SDS011;4197;42.130;24.746;2023-07-13T12:01:59;8.32;;;4.57;;
8319;SDS011;4197;42.130;24.746;2023-07-13T12:04:29;7.55;;;4.28;;
8319;SDS011;4197;42.130;24.746;2023-07-13T12:07:04;14.63;;;4.65;;
8319;SDS011;4197;42.130;24.746;2023-07-13T12:09:36;7.88;;;4.22;;
8319;SDS011;4197;42.130;24.746;2023-07-13T12:12:10;9.52;;;4.32;;
8319;SDS011;4197;42.130;24.746;2023-07-13T12:14:40;10.20;;;4.22;;
8319;SDS011;4197;42.130;24.746;2023-07-13T12:17:10;8.18;;;4.35;;
8319;SDS011;4197;42.130;24.746;2023-07-13T12:19:47;20.20;;;6.00;;
8319;SDS011;4197;42.130;24.746;2023-07-13T12:22:16;11.30;;;4.53;;
8319;SDS011;4197;42.130;24.746;2023-07-13T12:24:48;9.43;;;4.35;;
8319;SDS011;4197;42.130;24.746;2023-07-13T12:27:19;8.50;;;4.35;;
8319;SDS011;4197;42.130;24.746;2023-07-13T12:29:50;10.43;;;4.95;;
8319;SDS011;4197;42.130;24.746;2023-07-13T12:32:20;7.07;;;4.35;;
8319;SDS011;4197;42.130;24.746;2023-07-13T12:34:50;6.03;;;4.22;;
8319;SDS011;4197;42.130;24.746;2023-07-13T12:37:19;11.18;;;6.00;;
8319;SDS011;4197;42.130;24.746;2023-07-13T12:39:49;18.33;;;5.85;;
8319;SDS011;4197;42.130;24.746;2023-07-13T12:42:19;12.32;;;5.60;;
8319;SDS011;4197;42.130;24.746;2023-07-13T12:44:52;28.58;;;6.40;;
8319;SDS011;4197;42.130;24.746;2023-07-13T12:47:21;22.27;;;6.07;;
8319;SDS011;4197;42.130;24.746;2023-07-13T12:49:54;12.32;;;5.85;;
8319;SDS011;4197;42.130;24.746;2023-07-13T12:52:28;13.68;;;6.18;;
8319;SDS011;4197;42.130;24.746;2023-07-13T12:55:04;22.92;;;6.93;;
8319;SDS011;4197;42.130;24.746;2023-07-13T12:57:41;15.02;;;6.25;;
8319;SDS011;4197;42.130;24.746;2023-07-13T13:00:21;23.05;;;6.35;;
8319;SDS011;4197;42.130;24.746;2023-07-13T13:02:53;16.73;;;5.47;;
8319;SDS011;4197;42.130;24.746;2023-07-13T13:05:42;25.00;;;5.78;;
8319;SDS011;4197;42.130;24.746;2023-07-13T13:08:12;9.20;;;5.70;;
8319;SDS011;4197;42.130;24.746;2023-07-13T13:10:42;10.90;;;5.30;;
8319;SDS011;4197;42.130;24.746;2023-07-13T13:13:10;15.70;;;5.68;;
8319;SDS011;4197;42.130;24.746;2023-07-13T13:15:38;14.38;;;5.35;;
8319;SDS011;4197;42.130;24.746;2023-07-13T13:18:11;11.43;;;5.13;;
8319;SDS011;4197;42.130;24.746;2023-07-13T13:20:45;10.20;;;5.43;;
8319;SDS011;4197;42.130;24.746;2023-07-13T13:23:17;10.63;;;5.10;;
8319;SDS011;4197;42.130;24.746;2023-07-13T13:25:50;8.48;;;5.22;;
8319;SDS011;4197;42.130;24.746;2023-07-13T13:28:19;8.80;;;5.25;;
8319;SDS011;4197;42.130;24.746;2023-07-13T13:30:49;10.73;;;5.22;;
8319;SDS011;4197;42.130;24.746;2023-07-13T13:33:19;9.88;;;5.25;;
8319;SDS011;4197;42.130;24.746;2023-07-13T13:35:50;17.38;;;5.95;;
8319;SDS011;4197;42.130;24.746;2023-07-13T13:38:19;12.32;;;5.63;;
8319;SDS011;4197;42.130;24.746;2023-07-13T13:40:51;10.52;;;5.00;;
8319;SDS011;4197;42.130;24.746;2023-07-13T13:43:21;12.85;;;5.50;;
8319;SDS011;4197;42.130;24.746;2023-07-13T13:45:53;22.25;;;5.30;;
8319;SDS011;4197;42.130;24.746;2023-07-13T13:48:25;15.75;;;4.28;;
8319;SDS011;4197;42.130;24.746;2023-07-13T13:50:57;13.35;;;4.80;;
8319;SDS011;4197;42.130;24.746;2023-07-13T13:53:26;12.40;;;4.65;;
8319;SDS011;4197;42.130;24.746;2023-07-13T13:55:56;20.63;;;4.63;;
8319;SDS011;4197;42.130;24.746;2023-07-13T13:58:26;16.00;;;5.43;;
8319;SDS011;4197;42.130;24.746;2023-07-13T14:00:54;27.17;;;6.25;;
8319;SDS011;4197;42.130;24.746;2023-07-13T14:03:22;13.93;;;6.25;;
8319;SDS011;4197;42.130;24.746;2023-07-13T14:05:52;24.20;;;6.82;;
8319;SDS011;4197;42.130;24.746;2023-07-13T14:08:21;28.00;;;6.93;;
8319;SDS011;4197;42.130;24.746;2023-07-13T14:10:50;10.93;;;5.35;;
8319;SDS011;4197;42.130;24.746;2023-07-13T14:13:25;16.50;;;5.40;;
8319;SDS011;4197;42.130;24.746;2023-07-13T14:15:55;12.95;;;6.10;;
8319;SDS011;4197;42.130;24.746;2023-07-13T14:18:26;11.15;;;5.25;;
8319;SDS011;4197;42.130;24.746;2023-07-13T14:20:54;14.40;;;5.55;;
8319;SDS011;4197;42.130;24.746;2023-07-13T14:23:22;17.38;;;5.65;;
8319;SDS011;4197;42.130;24.746;2023-07-13T14:25:51;14.40;;;6.35;;
8319;SDS011;4197;42.130;24.746;2023-07-13T14:28:20;15.25;;;6.05;;
8319;SDS011;4197;42.130;24.746;2023-07-13T14:30:52;27.17;;;7.63;;
8319;SDS011;4197;42.130;24.746;2023-07-13T14:33:21;21.80;;;6.95;;
8319;SDS011;4197;42.130;24.746;2023-07-13T14:35:49;17.90;;;5.72;;
8319;SDS011;4197;42.130;24.746;2023-07-13T14:38:19;30.88;;;6.57;;
8319;SDS011;4197;42.130;24.746;2023-07-13T14:40:48;54.10;;;8.45;;
8319;SDS011;4197;42.130;24.746;2023-07-13T14:43:17;36.30;;;8.48;;
8319;SDS011;4197;42.130;24.746;2023-07-13T14:45:48;37.38;;;7.00;;
8319;SDS011;4197;42.130;24.746;2023-07-13T14:48:18;24.63;;;6.80;;
8319;SDS011;4197;42.130;24.746;2023-07-13T14:50:50;34.42;;;7.40;;
8319;SDS011;4197;42.130;24.746;2023-07-13T14:53:22;21.33;;;6.07;;
8319;SDS011;4197;42.130;24.746;2023-07-13T14:55:54;36.38;;;7.75;;
8319;SDS011;4197;42.130;24.746;2023-07-13T14:58:22;19.48;;;6.70;;
8319;SDS011;4197;42.130;24.746;2023-07-13T15:00:52;28.95;;;6.78;;
8319;SDS011;4197;42.130;24.746;2023-07-13T15:03:24;29.40;;;6.22;;
8319;SDS011;4197;42.130;24.746;2023-07-13T15:05:53;36.95;;;6.63;;
8319;SDS011;4197;42.130;24.746;2023-07-13T15:08:22;21.58;;;5.97;;
8319;SDS011;4197;42.130;24.746;2023-07-13T15:10:50;54.22;;;8.13;;
8319;SDS011;4197;42.130;24.746;2023-07-13T15:13:19;22.90;;;7.15;;
8319;SDS011;4197;42.130;24.746;2023-07-13T15:15:51;22.48;;;6.25;;
8319;SDS011;4197;42.130;24.746;2023-07-13T15:18:22;12.40;;;5.60;;